createdAt,value
2023-02-08T00:01:01.976Z,1.28
2023-02-08T00:04:06.204Z,1.53
2023-02-08T00:07:10.269Z,1.42
2023-02-08T00:10:15.702Z,1.43
2023-02-08T00:13:19.673Z,1.49
2023-02-08T00:16:23.262Z,1.47
2023-02-08T00:19:27.134Z,1.33
2023-02-08T00:22:30.860Z,1.61
2023-02-08T00:25:36.549Z,1.62
2023-02-08T00:28:40.497Z,1.56
2023-02-08T00:31:44.185Z,1.48
2023-02-08T00:34:48.542Z,1.65
2023-02-08T00:37:52.248Z,1.70
2023-02-08T00:40:57.600Z,1.73
2023-02-08T00:44:01.301Z,1.17
2023-02-08T00:47:05.602Z,1.63
2023-02-08T00:50:11.687Z,1.55
2023-02-08T00:53:15.309Z,1.43
2023-02-08T00:56:20.513Z,1.42
2023-02-08T00:59:24.260Z,1.34
2023-02-08T01:02:28.855Z,1.31
2023-02-08T01:05:32.473Z,1.12
2023-02-08T01:08:36.496Z,1.39
2023-02-08T01:11:41.723Z,1.55
2023-02-08T01:14:45.526Z,1.54
2023-02-08T01:17:49.230Z,1.51
2023-02-08T01:20:52.963Z,1.49
2023-02-08T01:23:57.163Z,1.43
2023-02-08T01:27:02.295Z,1.43
2023-02-08T01:30:07.596Z,1.06
2023-02-08T01:33:12.153Z,1.59
2023-02-08T01:36:16.702Z,1.46
2023-02-08T01:39:20.455Z,1.18
2023-02-08T01:42:25.514Z,1.51
2023-02-08T01:45:31.697Z,1.49
2023-02-08T01:48:39.147Z,1.55
2023-02-08T01:51:46.974Z,1.60
2023-02-08T01:54:52.698Z,1.60
2023-02-08T01:58:00.469Z,1.58
2023-02-08T02:01:05.567Z,1.45
2023-02-08T02:04:10.778Z,1.53
2023-02-08T02:07:15.272Z,1.32
2023-02-08T02:10:24.303Z,1.52
2023-02-08T02:13:29.889Z,1.24
2023-02-08T02:16:33.765Z,0.87
2023-02-08T02:19:47.300Z,1.31
2023-02-08T02:23:22.299Z,1.31
2023-02-08T02:27:04.252Z,1.22
2023-02-08T02:30:40.805Z,1.04
2023-02-08T02:33:59.926Z,1.19
2023-02-08T02:37:12.864Z,1.25
2023-02-08T02:40:23.423Z,1.15
2023-02-08T02:43:42.300Z,1.20
2023-02-08T02:46:54.376Z,1.24
2023-02-08T02:50:06.228Z,1.20
2023-02-08T02:53:18.260Z,1.32
2023-02-08T02:56:25.670Z,1.16
2023-02-08T02:59:30.440Z,1.43
2023-02-08T03:02:34.163Z,1.15
2023-02-08T03:05:39.500Z,0.85
2023-02-08T03:09:07.770Z,1.02
2023-02-08T03:12:31.370Z,1.03
2023-02-08T03:15:48.455Z,1.11
2023-02-08T03:19:06.750Z,0.95
2023-02-08T03:22:18.521Z,0.56
2023-02-08T03:25:26.574Z,0.87
2023-02-08T03:28:39.198Z,1.00
2023-02-08T03:31:48.583Z,1.07
2023-02-08T03:34:57.698Z,0.99
2023-02-08T03:38:06.253Z,1.07
2023-02-08T03:41:12.585Z,0.97
2023-02-08T03:44:20.441Z,0.97
2023-02-08T03:47:26.311Z,0.99
2023-02-08T03:50:36.216Z,1.15
2023-02-08T03:53:44.087Z,1.04
2023-02-08T03:56:53.814Z,0.95
2023-02-08T04:00:03.030Z,1.09
2023-02-08T04:03:19.846Z,0.96
2023-02-08T04:06:23.975Z,0.88
2023-02-08T04:09:29.527Z,0.81
2023-02-08T04:12:33.225Z,1.08
2023-02-08T04:15:37.155Z,0.86
2023-02-08T04:18:40.955Z,0.87
2023-02-08T04:21:44.694Z,0.98
2023-02-08T04:24:50.020Z,0.94
2023-02-08T04:27:53.704Z,0.98
2023-02-08T04:30:58.296Z,0.94
2023-02-08T04:34:03.004Z,0.61
2023-02-08T04:37:07.008Z,0.52
2023-02-08T04:40:13.414Z,0.43
2023-02-08T04:43:17.143Z,0.61
2023-02-08T04:46:20.848Z,0.70
2023-02-08T04:49:24.760Z,0.67
2023-02-08T04:52:28.547Z,0.75
2023-02-08T04:55:33.737Z,1.09
2023-02-08T04:58:37.562Z,0.82
2023-02-08T05:01:41.276Z,1.08
2023-02-08T05:04:45.030Z,1.18
2023-02-08T05:07:48.664Z,1.11
2023-02-08T05:10:53.902Z,0.52
2023-02-08T05:13:57.530Z,0.73
2023-02-08T05:17:01.177Z,1.02
2023-02-08T05:20:05.234Z,0.98
2023-02-08T05:23:08.946Z,1.10
2023-02-08T05:26:14.311Z,0.93
2023-02-08T05:29:17.972Z,1.09
2023-02-08T05:32:21.888Z,0.79
2023-02-08T05:35:25.606Z,0.91
2023-02-08T05:38:29.266Z,0.71
2023-02-08T05:41:34.828Z,0.63
2023-02-08T05:44:38.614Z,0.67
2023-02-08T05:47:42.364Z,0.84
2023-02-08T05:50:46.180Z,0.97
2023-02-08T05:53:51.689Z,1.03
2023-02-08T05:56:56.967Z,1.15
2023-02-08T06:00:00.704Z,1.18
2023-02-08T06:03:04.713Z,1.01
2023-02-08T06:06:11.346Z,1.26
2023-02-08T06:09:15.336Z,1.35
2023-02-08T06:12:20.682Z,1.23
2023-02-08T06:15:24.551Z,1.29
2023-02-08T06:18:28.453Z,1.44
2023-02-08T06:21:32.381Z,1.40
2023-02-08T06:24:36.229Z,1.36
2023-02-08T06:27:41.547Z,1.62
2023-02-08T06:30:45.464Z,1.44
2023-02-08T06:33:49.337Z,1.32
2023-02-08T06:36:53.231Z,1.53
2023-02-08T06:39:57.095Z,1.32
2023-02-08T06:43:02.452Z,1.06
2023-02-08T06:46:08.909Z,1.37
2023-02-08T06:49:13.332Z,1.56
2023-02-08T06:52:17.315Z,1.68
2023-02-08T06:55:21.185Z,1.71
2023-02-08T06:58:26.542Z,1.89
2023-02-08T07:01:30.449Z,1.75
2023-02-08T07:04:34.412Z,1.72
2023-02-08T07:07:38.386Z,1.71
2023-02-08T07:10:44.168Z,1.85
2023-02-08T07:13:52.868Z,1.99
2023-02-08T07:16:56.797Z,2.07
2023-02-08T07:20:00.677Z,2.02
2023-02-08T07:23:04.614Z,2.21
2023-02-08T07:26:10.342Z,2.17
2023-02-08T07:29:15.617Z,1.98
2023-02-08T07:32:19.595Z,2.07
2023-02-08T07:35:23.583Z,1.77
2023-02-08T07:38:27.526Z,2.20
2023-02-08T07:41:31.395Z,2.18
2023-02-08T07:44:38.376Z,2.27
2023-02-08T07:47:42.284Z,2.39
2023-02-08T07:50:46.258Z,2.54
2023-02-08T07:53:50.118Z,2.54
2023-02-08T07:56:54.138Z,2.26
2023-02-08T07:59:59.459Z,2.68
2023-02-08T08:03:03.369Z,2.72
2023-02-08T08:06:07.708Z,3.07
2023-02-08T08:09:11.630Z,2.95
2023-02-08T08:12:15.531Z,3.46
2023-02-08T08:15:21.000Z,3.86
2023-02-08T08:18:24.948Z,4.45
2023-02-08T08:21:28.811Z,5.04
2023-02-08T08:24:35.912Z,4.69
2023-02-08T08:27:39.970Z,5.01
2023-02-08T08:30:46.293Z,5.54
2023-02-08T08:33:50.592Z,4.95
2023-02-08T08:36:54.495Z,5.85
2023-02-08T08:39:58.702Z,5.72
2023-02-08T08:43:02.639Z,5.90
2023-02-08T08:46:09.305Z,5.83
2023-02-08T08:49:13.260Z,6.03
2023-02-08T08:52:17.729Z,6.43
2023-02-08T08:55:21.649Z,6.03
2023-02-08T08:58:25.551Z,6.92
2023-02-08T09:01:33.017Z,6.92
2023-02-08T09:04:37.807Z,6.95
2023-02-08T09:07:41.556Z,6.74
2023-02-08T09:10:45.460Z,7.45
2023-02-08T09:13:53.089Z,7.41
2023-02-08T09:16:58.522Z,7.41
2023-02-08T09:20:04.678Z,7.57
2023-02-08T09:23:08.849Z,7.95
2023-02-08T09:26:16.296Z,8.29
2023-02-08T09:29:20.334Z,8.31
2023-02-08T09:32:25.715Z,8.63
2023-02-08T09:35:29.612Z,7.94
2023-02-08T09:38:34.773Z,7.34
2023-02-08T09:41:57.361Z,8.16
2023-02-08T09:45:47.950Z,8.32
2023-02-08T09:48:59.998Z,8.74
2023-02-08T09:52:08.788Z,8.57
2023-02-08T09:55:23.469Z,9.05
2023-02-08T09:58:32.990Z,9.29
2023-02-08T10:01:38.343Z,9.54
2023-02-08T10:04:57.081Z,9.05
2023-02-08T10:08:02.611Z,9.39
2023-02-08T10:11:22.429Z,8.71
2023-02-08T10:14:48.891Z,8.72
2023-02-08T10:18:19.151Z,8.80
2023-02-08T10:21:42.778Z,9.26
2023-02-08T10:25:05.828Z,9.48
2023-02-08T10:28:36.492Z,9.10
2023-02-08T10:31:53.271Z,9.07
2023-02-08T10:35:01.812Z,9.53
2023-02-08T10:38:27.907Z,10.33
2023-02-08T10:41:37.699Z,10.27
2023-02-08T10:44:52.417Z,9.91
2023-02-08T10:47:58.314Z,9.64
2023-02-08T10:51:02.177Z,9.45
2023-02-08T10:54:07.695Z,10.52
2023-02-08T10:57:19.446Z,10.58
2023-02-08T11:00:27.226Z,9.94
2023-02-08T11:03:31.966Z,10.39
2023-02-08T11:06:35.864Z,10.51
2023-02-08T11:09:41.225Z,10.54
2023-02-08T11:12:55.962Z,10.75
2023-02-08T11:16:02.456Z,10.02
2023-02-08T11:19:08.554Z,10.78
2023-02-08T11:22:17.575Z,10.93
2023-02-08T11:25:36.091Z,10.85
2023-02-08T11:28:40.126Z,10.18
2023-02-08T11:31:58.973Z,10.26
2023-02-08T11:35:14.404Z,9.23
2023-02-08T11:38:27.560Z,10.04
2023-02-08T11:41:33.187Z,10.26
2023-02-08T11:44:43.178Z,9.83
2023-02-08T11:47:50.139Z,7.54
2023-02-08T11:51:00.276Z,8.00
2023-02-08T11:54:05.076Z,7.77
2023-02-08T11:57:19.556Z,7.74
2023-02-08T12:00:25.787Z,6.60
2023-02-08T12:03:33.826Z,6.49
2023-02-08T12:07:07.981Z,5.77
2023-02-08T12:10:32.638Z,6.15
2023-02-08T12:14:08.078Z,6.16
2023-02-08T12:17:34.298Z,6.45
2023-02-08T12:20:42.456Z,6.95
2023-02-08T12:23:53.711Z,7.82
2023-02-08T12:27:09.598Z,8.35
2023-02-08T12:30:24.576Z,8.22
2023-02-08T12:33:41.143Z,8.08
2023-02-08T12:37:17.925Z,7.79
2023-02-08T12:40:50.343Z,7.67
2023-02-08T12:44:06.894Z,7.91
2023-02-08T12:47:33.052Z,8.08
2023-02-08T12:50:46.783Z,8.19
2023-02-08T12:53:55.831Z,8.64
2023-02-08T12:57:02.664Z,8.66
2023-02-08T13:00:17.307Z,8.85
2023-02-08T13:03:34.392Z,8.03
2023-02-08T13:06:42.452Z,8.65
2023-02-08T13:09:53.782Z,8.83
2023-02-08T13:13:03.060Z,9.07
2023-02-08T13:16:14.680Z,8.85
2023-02-08T13:19:30.189Z,8.86
2023-02-08T13:22:38.982Z,9.09
2023-02-08T13:25:44.770Z,8.99
2023-02-08T13:28:51.611Z,9.08
2023-02-08T13:32:00.279Z,8.86
2023-02-08T13:35:15.387Z,8.50
2023-02-08T13:38:28.809Z,8.13
2023-02-08T13:41:34.473Z,7.79
2023-02-08T13:44:40.236Z,8.46
2023-02-08T13:47:49.048Z,7.98
2023-02-08T13:50:57.147Z,8.61
2023-02-08T13:54:12.433Z,8.28
2023-02-08T13:57:52.595Z,8.48
2023-02-08T14:01:08.410Z,8.43
2023-02-08T14:04:36.818Z,8.07
2023-02-08T14:07:45.341Z,8.29
2023-02-08T14:11:02.260Z,8.29
2023-02-08T14:14:15.169Z,8.20
2023-02-08T14:17:25.760Z,8.47
2023-02-08T14:20:37.066Z,8.53
2023-02-08T14:23:42.479Z,8.16
2023-02-08T14:26:47.444Z,7.80
2023-02-08T14:30:00.182Z,8.38
2023-02-08T14:33:20.876Z,8.50
2023-02-08T14:36:30.547Z,8.54
2023-02-08T14:39:37.572Z,8.42
2023-02-08T14:42:57.811Z,7.99
2023-02-08T14:46:34.904Z,7.85
2023-02-08T14:49:41.362Z,7.73
2023-02-08T14:52:49.934Z,7.69
2023-02-08T14:56:00.029Z,7.69
2023-02-08T14:59:09.316Z,7.20
2023-02-08T15:02:17.154Z,6.82
2023-02-08T15:05:24.278Z,6.92
2023-02-08T15:08:29.307Z,6.67
2023-02-08T15:11:36.629Z,6.43
2023-02-08T15:14:43.224Z,6.29
2023-02-08T15:17:50.494Z,6.23
2023-02-08T15:21:06.636Z,6.16
2023-02-08T15:24:19.412Z,6.08
2023-02-08T15:27:26.736Z,5.46
2023-02-08T15:30:35.451Z,5.17
2023-02-08T15:33:41.110Z,5.18
2023-02-08T15:36:50.886Z,4.67
2023-02-08T15:39:57.475Z,4.83
2023-02-08T15:43:13.775Z,4.74
2023-02-08T15:46:21.757Z,4.70
2023-02-08T15:49:31.784Z,4.56
2023-02-08T15:52:38.857Z,4.40
2023-02-08T15:55:49.545Z,3.95
2023-02-08T15:58:58.735Z,4.13
2023-02-08T16:02:19.685Z,4.19
2023-02-08T16:05:26.790Z,4.22
2023-02-08T16:08:33.826Z,3.97
2023-02-08T16:11:38.387Z,4.33
2023-02-08T16:14:52.510Z,4.45
2023-02-08T16:17:58.522Z,4.30
2023-02-08T16:21:05.694Z,4.26
2023-02-08T16:24:25.336Z,3.91
2023-02-08T16:27:32.138Z,4.14
2023-02-08T16:30:37.655Z,4.17
2023-02-08T16:33:42.266Z,4.05
2023-02-08T16:36:49.866Z,3.83
2023-02-08T16:39:56.081Z,3.82
2023-02-08T16:43:18.094Z,3.78
2023-02-08T16:46:27.041Z,3.58
2023-02-08T16:49:30.921Z,3.40
2023-02-08T16:52:35.935Z,3.80
2023-02-08T16:55:39.873Z,3.73
2023-02-08T16:58:43.845Z,3.52
2023-02-08T17:01:50.417Z,3.35
2023-02-08T17:04:54.912Z,3.52
2023-02-08T17:07:59.897Z,3.27
2023-02-08T17:11:03.756Z,2.77
2023-02-08T17:14:08.404Z,2.95
2023-02-08T17:17:13.871Z,3.04
2023-02-08T17:20:23.313Z,2.94
2023-02-08T17:23:27.524Z,3.17
2023-02-08T17:26:38.628Z,3.18
2023-02-08T17:29:43.032Z,3.05
2023-02-08T17:32:48.333Z,3.07
2023-02-08T17:35:54.080Z,3.36
2023-02-08T17:38:57.962Z,2.98
2023-02-08T17:42:01.901Z,2.87
2023-02-08T17:45:06.269Z,2.71
2023-02-08T17:48:13.644Z,3.00
2023-02-08T17:51:19.758Z,2.87
2023-02-08T17:54:23.785Z,2.68
2023-02-08T17:57:27.748Z,2.69
2023-02-08T18:00:31.586Z,2.51
2023-02-08T18:03:37.336Z,2.74
2023-02-08T18:06:41.241Z,2.51
2023-02-08T18:09:45.087Z,2.69
2023-02-08T18:12:49.187Z,2.84
2023-02-08T18:15:53.048Z,2.77
2023-02-08T18:18:59.514Z,2.69
2023-02-08T18:22:04.863Z,2.52
2023-02-08T18:25:09.567Z,2.89
2023-02-08T18:28:15.538Z,2.83
2023-02-08T18:31:20.674Z,3.06
2023-02-08T18:34:26.540Z,2.59
2023-02-08T18:37:30.365Z,2.90
2023-02-08T18:40:34.366Z,2.98
2023-02-08T18:43:38.887Z,3.15
2023-02-08T18:46:42.848Z,2.79
2023-02-08T18:49:48.174Z,2.59
2023-02-08T18:52:52.060Z,2.53
2023-02-08T18:55:56.489Z,2.70
2023-02-08T18:59:01.070Z,2.78
2023-02-08T19:02:05.910Z,2.64
2023-02-08T19:05:11.382Z,2.68
2023-02-08T19:08:16.642Z,2.41
2023-02-08T19:11:23.295Z,2.80
2023-02-08T19:14:27.250Z,2.89
2023-02-08T19:17:30.951Z,2.38
2023-02-08T19:20:38.663Z,2.36
2023-02-08T19:23:42.651Z,2.12
2023-02-08T19:26:47.030Z,2.30
2023-02-08T19:29:52.592Z,2.01
2023-02-08T19:32:57.139Z,2.18
2023-02-08T19:36:08.569Z,2.10
2023-02-08T19:39:16.102Z,2.29
2023-02-08T19:42:20.359Z,2.50
2023-02-08T19:45:25.472Z,2.20
2023-02-08T19:48:29.581Z,2.21
2023-02-08T19:51:37.273Z,2.25
2023-02-08T19:54:41.479Z,2.37
2023-02-08T19:57:45.449Z,2.04
2023-02-08T20:00:49.467Z,2.08
2023-02-08T20:03:55.512Z,1.81
2023-02-08T20:07:00.810Z,1.91
2023-02-08T20:10:04.877Z,1.75
2023-02-08T20:13:08.790Z,1.72
2023-02-08T20:16:12.769Z,1.75
2023-02-08T20:19:16.681Z,1.73
2023-02-08T20:22:22.067Z,1.87
2023-02-08T20:25:26.627Z,1.84
2023-02-08T20:28:30.556Z,1.96
2023-02-08T20:31:36.592Z,1.80
2023-02-08T20:34:47.449Z,1.69
2023-02-08T20:37:59.378Z,1.77
2023-02-08T20:41:03.875Z,1.72
2023-02-08T20:44:07.965Z,1.47
2023-02-08T20:47:11.893Z,1.44
2023-02-08T20:50:19.464Z,1.57
2023-02-08T20:53:25.555Z,1.67
2023-02-08T20:56:32.817Z,1.45
2023-02-08T20:59:36.668Z,1.73
2023-02-08T21:02:42.138Z,1.68
2023-02-08T21:05:45.928Z,1.60
2023-02-08T21:08:52.400Z,1.61
2023-02-08T21:11:56.666Z,1.63
2023-02-08T21:15:00.548Z,1.64
2023-02-08T21:18:04.448Z,1.68
2023-02-08T21:21:10.039Z,1.68
2023-02-08T21:24:15.483Z,1.76
2023-02-08T21:27:19.689Z,1.45
2023-02-08T21:30:23.647Z,1.59
2023-02-08T21:33:28.006Z,1.40
2023-02-08T21:36:32.446Z,1.40
2023-02-08T21:39:37.699Z,1.57
2023-02-08T21:42:41.644Z,1.25
2023-02-08T21:45:45.694Z,1.57
2023-02-08T21:49:06.750Z,1.26
2023-02-08T21:52:29.367Z,1.48
2023-02-08T21:55:34.744Z,1.71
2023-02-08T21:58:39.536Z,1.62
2023-02-08T22:01:43.588Z,1.66
2023-02-08T22:04:47.474Z,1.94
2023-02-08T22:07:54.497Z,1.68
2023-02-08T22:11:05.017Z,1.56
2023-02-08T22:14:09.134Z,1.41
2023-02-08T22:17:13.125Z,1.51
2023-02-08T22:20:17.399Z,1.71
2023-02-08T22:23:21.314Z,1.36
2023-02-08T22:26:26.688Z,1.53
2023-02-08T22:29:30.802Z,1.44
2023-02-08T22:32:34.776Z,1.61
2023-02-08T22:35:40.368Z,1.71
2023-02-08T22:38:44.252Z,1.71
2023-02-08T22:41:49.825Z,1.42
2023-02-08T22:44:55.876Z,1.56
2023-02-08T22:47:59.818Z,1.59
2023-02-08T22:51:07.703Z,1.78
2023-02-08T22:54:11.564Z,1.81
2023-02-08T22:57:16.892Z,1.91
2023-02-08T23:00:20.756Z,1.85
2023-02-08T23:03:25.021Z,1.52
2023-02-08T23:06:29.091Z,1.60
2023-02-08T23:09:33.017Z,1.69
2023-02-08T23:12:38.526Z,1.49
2023-02-08T23:15:44.947Z,1.62
2023-02-08T23:18:49.287Z,1.35
2023-02-08T23:21:53.177Z,1.36
2023-02-08T23:24:57.093Z,1.68
2023-02-08T23:28:02.680Z,1.78
2023-02-08T23:31:07.153Z,1.97
2023-02-08T23:34:12.908Z,1.95
2023-02-08T23:37:16.843Z,2.07
2023-02-08T23:40:20.721Z,2.02
2023-02-08T23:43:26.085Z,1.95
2023-02-08T23:46:31.030Z,2.07
2023-02-08T23:49:34.871Z,2.16
2023-02-08T23:52:39.267Z,1.86
2023-02-08T23:55:43.279Z,2.08
2023-02-08T23:58:50.998Z,2.10
